Terminal Aerodrome Forecast
Issued by NWS Grand Forks, ND

Current Version | Previous Version | Text Only | Print | Product List | Glossary On
Versions: 1 2 3 4 5 6 7 8 9 10 11 12 13
000
FTUS43 KFGF 051100
TAFFAR
TAF
KFAR 051120Z 0512/0612 19010KT P6SM SKC
     FM051800 19015G25KT P6SM SCT250
     FM060100 19014KT P6SM SCT250=

USA.gov is the U.S. government's official web portal to all federal, state and local government web resources and services.